Skip Navigation Links Skip Navigation Links

Current Weather

Dupont-Lapeer, Lapeer, Mich.

For information only: do not use for flight planning or navigation.
Latest weather
Observation time Thursday, October 17, 2019 2:18 AM EDT
Local time Thursday, October 17, 2019 2:36 AM EDT
Flight conditions Visual Meteorological Conditions
Winds
Wind direction Northwest (310°)
Wind speed 13 mph
Wind gusting to 25 mph
Visibility 10 mi.
Sky condition
Ceiling 3,300 ft. overcast
Cloud layer overcast 3,300 ft.
Temperature 44°F
Dewpoint 36°F
Altimeter 29.78 in.Hg
Derived measurements
Relative humidity 76%
Wind chill 37°F
Density altitude 80 ft.
Remarks
Fully automated report.
Automated weather observing station with precipitation discriminator.
METAR KD95 170618Z AUTO 31011G22KT 10SM OVC033 06/03 A2978 RMK AO2 T00640025

Settings

Location code

InnerDrive.Weather 4.0.6770.0 Release CLR 4.0.30319.42000
Copyright ©2018 Inner Drive Technology. All rights reserved. Portions Copyright ©1986-2018 David Braverman.

Find weather

Site navigation


Skip Navigation Links

Place info

Page info

PayPal - The safer, easier way to pay online!

Return home.

Copyright ©2019 Inner Drive Technology. Purveyors of fine, hand-crafted computer software. Page printed 2019-10-17T06:36:30 UTC.